sensor_id;sensor_type;location;lat;lon;timestamp;pressure;altitude;pressure_sealevel;temperature;humidity
57628;BME280;43451;49.060;10.616;2023-02-04T00:00:16;97721.53;;;4.94;100.00
57628;BME280;43451;49.060;10.616;2023-02-04T00:02:42;97703.19;;;4.87;100.00
57628;BME280;43451;49.060;10.616;2023-02-04T00:05:09;97706.31;;;4.98;100.00
57628;BME280;43451;49.060;10.616;2023-02-04T00:07:34;97718.34;;;5.13;100.00
57628;BME280;43451;49.060;10.616;2023-02-04T00:10:01;97714.94;;;5.04;100.00
57628;BME280;43451;49.060;10.616;2023-02-04T00:12:26;97704.94;;;4.92;100.00
57628;BME280;43451;49.060;10.616;2023-02-04T00:14:52;97692.13;;;4.89;100.00
57628;BME280;43451;49.060;10.616;2023-02-04T00:17:17;97695.72;;;4.93;100.00
57628;BME280;43451;49.060;10.616;2023-02-04T00:19:42;97695.91;;;4.88;100.00
57628;BME280;43451;49.060;10.616;2023-02-04T00:22:08;97695.66;;;4.81;100.00
57628;BME280;43451;49.060;10.616;2023-02-04T00:24:35;97698.94;;;4.86;100.00
57628;BME280;43451;49.060;10.616;2023-02-04T00:27:00;97727.13;;;4.89;100.00
57628;BME280;43451;49.060;10.616;2023-02-04T00:29:26;97717.06;;;4.77;100.00
57628;BME280;43451;49.060;10.616;2023-02-04T00:31:51;97711.28;;;4.87;100.00
57628;BME280;43451;49.060;10.616;2023-02-04T00:34:17;97712.06;;;4.88;100.00
57628;BME280;43451;49.060;10.616;2023-02-04T00:36:43;97701.16;;;4.84;100.00
57628;BME280;43451;49.060;10.616;2023-02-04T00:39:08;97716.94;;;4.74;100.00
57628;BME280;43451;49.060;10.616;2023-02-04T00:41:34;97728.50;;;4.74;100.00
57628;BME280;43451;49.060;10.616;2023-02-04T00:43:59;97720.88;;;4.76;100.00
57628;BME280;43451;49.060;10.616;2023-02-04T00:46:24;97729.34;;;4.87;100.00
57628;BME280;43451;49.060;10.616;2023-02-04T00:48:50;97728.56;;;4.86;100.00
57628;BME280;43451;49.060;10.616;2023-02-04T00:51:15;97723.50;;;4.85;100.00
57628;BME280;43451;49.060;10.616;2023-02-04T00:53:41;97730.47;;;4.86;100.00
57628;BME280;43451;49.060;10.616;2023-02-04T00:56:06;97738.16;;;4.96;100.00
57628;BME280;43451;49.060;10.616;2023-02-04T00:58:31;97734.00;;;4.99;100.00
57628;BME280;43451;49.060;10.616;2023-02-04T01:00:57;97734.59;;;5.04;100.00
57628;BME280;43451;49.060;10.616;2023-02-04T01:03:22;97731.25;;;5.07;100.00
57628;BME280;43451;49.060;10.616;2023-02-04T01:05:48;97737.78;;;4.98;100.00
57628;BME280;43451;49.060;10.616;2023-02-04T01:08:13;97733.47;;;5.05;100.00
57628;BME280;43451;49.060;10.616;2023-02-04T01:10:39;97743.34;;;5.01;100.00
57628;BME280;43451;49.060;10.616;2023-02-04T01:13:05;97746.22;;;4.96;100.00
57628;BME280;43451;49.060;10.616;2023-02-04T01:15:30;97757.19;;;4.91;100.00
57628;BME280;43451;49.060;10.616;2023-02-04T01:17:55;97753.25;;;4.88;100.00
57628;BME280;43451;49.060;10.616;2023-02-04T01:20:21;97758.81;;;4.83;100.00
57628;BME280;43451;49.060;10.616;2023-02-04T01:22:46;97766.19;;;4.95;100.00
57628;BME280;43451;49.060;10.616;2023-02-04T01:25:12;97776.97;;;4.95;100.00
57628;BME280;43451;49.060;10.616;2023-02-04T01:27:37;97775.38;;;4.94;100.00
57628;BME280;43451;49.060;10.616;2023-02-04T01:30:04;97776.50;;;4.93;100.00
57628;BME280;43451;49.060;10.616;2023-02-04T01:32:30;97773.34;;;4.91;100.00
57628;BME280;43451;49.060;10.616;2023-02-04T01:34:55;97798.22;;;4.88;100.00
57628;BME280;43451;49.060;10.616;2023-02-04T01:37:20;97805.97;;;4.89;100.00
57628;BME280;43451;49.060;10.616;2023-02-04T01:39:46;97802.94;;;4.91;100.00
57628;BME280;43451;49.060;10.616;2023-02-04T01:42:11;97799.16;;;4.92;100.00
57628;BME280;43451;49.060;10.616;2023-02-04T01:44:37;97821.53;;;4.84;100.00
57628;BME280;43451;49.060;10.616;2023-02-04T01:47:04;97801.38;;;4.90;100.00
57628;BME280;43451;49.060;10.616;2023-02-04T01:49:29;97800.47;;;4.86;100.00
57628;BME280;43451;49.060;10.616;2023-02-04T01:51:55;97800.59;;;4.89;100.00
57628;BME280;43451;49.060;10.616;2023-02-04T01:54:21;97811.38;;;4.89;100.00
57628;BME280;43451;49.060;10.616;2023-02-04T01:56:47;97802.94;;;4.91;100.00
57628;BME280;43451;49.060;10.616;2023-02-04T01:59:16;97800.91;;;4.88;100.00
57628;BME280;43451;49.060;10.616;2023-02-04T02:01:47;97810.44;;;4.85;100.00
57628;BME280;43451;49.060;10.616;2023-02-04T02:04:19;97810.94;;;4.79;100.00
57628;BME280;43451;49.060;10.616;2023-02-04T02:06:56;97809.38;;;4.78;100.00
57628;BME280;43451;49.060;10.616;2023-02-04T02:09:23;97811.78;;;4.71;100.00
57628;BME280;43451;49.060;10.616;2023-02-04T02:11:49;97816.59;;;4.56;100.00
57628;BME280;43451;49.060;10.616;2023-02-04T02:14:15;97826.34;;;4.40;100.00
57628;BME280;43451;49.060;10.616;2023-02-04T02:16:40;97818.75;;;4.42;100.00
57628;BME280;43451;49.060;10.616;2023-02-04T02:19:09;97825.25;;;4.41;100.00
57628;BME280;43451;49.060;10.616;2023-02-04T02:21:48;97829.03;;;4.40;100.00
57628;BME280;43451;49.060;10.616;2023-02-04T02:24:33;97841.41;;;4.41;100.00
57628;BME280;43451;49.060;10.616;2023-02-04T02:27:04;97849.34;;;4.29;100.00
57628;BME280;43451;49.060;10.616;2023-02-04T02:29:32;97845.19;;;4.31;100.00
57628;BME280;43451;49.060;10.616;2023-02-04T02:31:58;97850.59;;;4.31;100.00
57628;BME280;43451;49.060;10.616;2023-02-04T02:34:28;97878.47;;;4.27;100.00
57628;BME280;43451;49.060;10.616;2023-02-04T02:36:55;97875.47;;;4.28;100.00
57628;BME280;43451;49.060;10.616;2023-02-04T02:39:22;97868.69;;;4.22;100.00
57628;BME280;43451;49.060;10.616;2023-02-04T02:41:47;97883.22;;;4.21;100.00
57628;BME280;43451;49.060;10.616;2023-02-04T02:44:14;97867.72;;;4.18;100.00
57628;BME280;43451;49.060;10.616;2023-02-04T02:46:40;97869.00;;;4.12;100.00
57628;BME280;43451;49.060;10.616;2023-02-04T02:49:10;97884.97;;;4.26;100.00
57628;BME280;43451;49.060;10.616;2023-02-04T02:51:38;97884.19;;;4.25;100.00
57628;BME280;43451;49.060;10.616;2023-02-04T02:54:03;97873.44;;;4.16;100.00
57628;BME280;43451;49.060;10.616;2023-02-04T02:56:29;97886.69;;;4.22;100.00
57628;BME280;43451;49.060;10.616;2023-02-04T02:58:54;97898.56;;;4.21;100.00
57628;BME280;43451;49.060;10.616;2023-02-04T03:01:20;97901.09;;;4.26;100.00
57628;BME280;43451;49.060;10.616;2023-02-04T03:03:48;97905.50;;;4.30;100.00
57628;BME280;43451;49.060;10.616;2023-02-04T03:06:19;97900.47;;;4.29;100.00
57628;BME280;43451;49.060;10.616;2023-02-04T03:08:47;97916.25;;;4.30;100.00
57628;BME280;43451;49.060;10.616;2023-02-04T03:11:14;97928.94;;;4.21;100.00
57628;BME280;43451;49.060;10.616;2023-02-04T03:13:39;97918.03;;;4.17;100.00
57628;BME280;43451;49.060;10.616;2023-02-04T03:16:06;97923.88;;;4.19;100.00
57628;BME280;43451;49.060;10.616;2023-02-04T03:18:33;97926.72;;;4.14;100.00
57628;BME280;43451;49.060;10.616;2023-02-04T03:20:59;97940.66;;;4.16;100.00
57628;BME280;43451;49.060;10.616;2023-02-04T03:23:25;97944.91;;;4.26;100.00
57628;BME280;43451;49.060;10.616;2023-02-04T03:25:51;97935.28;;;4.25;100.00
57628;BME280;43451;49.060;10.616;2023-02-04T03:28:17;97952.66;;;4.28;100.00
57628;BME280;43451;49.060;10.616;2023-02-04T03:30:42;97960.28;;;4.26;100.00
57628;BME280;43451;49.060;10.616;2023-02-04T03:33:08;97946.03;;;4.25;100.00
57628;BME280;43451;49.060;10.616;2023-02-04T03:35:33;97953.78;;;4.27;100.00
57628;BME280;43451;49.060;10.616;2023-02-04T03:37:58;97948.09;;;4.28;100.00
57628;BME280;43451;49.060;10.616;2023-02-04T03:40:24;97942.09;;;4.23;100.00
57628;BME280;43451;49.060;10.616;2023-02-04T03:42:49;97939.38;;;4.23;100.00
57628;BME280;43451;49.060;10.616;2023-02-04T03:45:14;97952.22;;;4.17;100.00
57628;BME280;43451;49.060;10.616;2023-02-04T03:47:40;97943.84;;;4.10;100.00
57628;BME280;43451;49.060;10.616;2023-02-04T03:50:05;97936.72;;;4.14;100.00
57628;BME280;43451;49.060;10.616;2023-02-04T03:52:31;97943.81;;;4.18;100.00
57628;BME280;43451;49.060;10.616;2023-02-04T03:54:56;97935.13;;;4.13;100.00
57628;BME280;43451;49.060;10.616;2023-02-04T03:57:22;97935.94;;;3.96;100.00
57628;BME280;43451;49.060;10.616;2023-02-04T03:59:47;97942.56;;;4.07;100.00
57628;BME280;43451;49.060;10.616;2023-02-04T04:02:12;97946.81;;;4.08;100.00
57628;BME280;43451;49.060;10.616;2023-02-04T04:04:38;97940.03;;;4.02;100.00
57628;BME280;43451;49.060;10.616;2023-02-04T04:07:04;97946.69;;;3.70;100.00
57628;BME280;43451;49.060;10.616;2023-02-04T04:09:29;97952.69;;;3.76;100.00
57628;BME280;43451;49.060;10.616;2023-02-04T04:11:54;97948.56;;;3.61;100.00
57628;BME280;43451;49.060;10.616;2023-02-04T04:14:20;97953.47;;;3.41;100.00
57628;BME280;43451;49.060;10.616;2023-02-04T04:16:46;97956.47;;;3.40;100.00
57628;BME280;43451;49.060;10.616;2023-02-04T04:19:11;97965.63;;;3.47;100.00
57628;BME280;43451;49.060;10.616;2023-02-04T04:21:36;97975.44;;;3.52;100.00
57628;BME280;43451;49.060;10.616;2023-02-04T04:24:02;97972.63;;;3.66;100.00
57628;BME280;43451;49.060;10.616;2023-02-04T04:26:27;97981.16;;;3.77;100.00
57628;BME280;43451;49.060;10.616;2023-02-04T04:28:53;97981.81;;;3.91;100.00
57628;BME280;43451;49.060;10.616;2023-02-04T04:31:18;97983.38;;;3.75;100.00
57628;BME280;43451;49.060;10.616;2023-02-04T04:33:43;97983.66;;;3.64;100.00
57628;BME280;43451;49.060;10.616;2023-02-04T04:36:09;97986.69;;;3.71;100.00
57628;BME280;43451;49.060;10.616;2023-02-04T04:38:34;97994.13;;;3.75;100.00
57628;BME280;43451;49.060;10.616;2023-02-04T04:40:59;97989.97;;;3.51;100.00
57628;BME280;43451;49.060;10.616;2023-02-04T04:43:25;97994.88;;;3.49;100.00
57628;BME280;43451;49.060;10.616;2023-02-04T04:45:51;97997.56;;;3.49;100.00
57628;BME280;43451;49.060;10.616;2023-02-04T04:48:16;97995.22;;;3.56;100.00
57628;BME280;43451;49.060;10.616;2023-02-04T04:50:45;97998.63;;;3.39;100.00
57628;BME280;43451;49.060;10.616;2023-02-04T04:53:10;98005.44;;;3.37;100.00
57628;BME280;43451;49.060;10.616;2023-02-04T04:55:36;98014.75;;;3.31;100.00
57628;BME280;43451;49.060;10.616;2023-02-04T04:58:03;98009.66;;;3.20;100.00
57628;BME280;43451;49.060;10.616;2023-02-04T05:00:28;98005.25;;;3.24;100.00
57628;BME280;43451;49.060;10.616;2023-02-04T05:02:54;98014.06;;;3.16;100.00
57628;BME280;43451;49.060;10.616;2023-02-04T05:05:19;98020.53;;;3.15;100.00
57628;BME280;43451;49.060;10.616;2023-02-04T05:07:45;98021.47;;;3.19;100.00
57628;BME280;43451;49.060;10.616;2023-02-04T05:10:10;98025.69;;;3.03;100.00
57628;BME280;43451;49.060;10.616;2023-02-04T05:12:35;98031.41;;;3.10;100.00
57628;BME280;43451;49.060;10.616;2023-02-04T05:15:01;98035.50;;;3.08;100.00
57628;BME280;43451;49.060;10.616;2023-02-04T05:17:27;98044.97;;;3.05;100.00
57628;BME280;43451;49.060;10.616;2023-02-04T05:19:52;98042.22;;;3.28;100.00
57628;BME280;43451;49.060;10.616;2023-02-04T05:22:17;98036.22;;;3.39;100.00
57628;BME280;43451;49.060;10.616;2023-02-04T05:24:43;98041.59;;;3.39;100.00
57628;BME280;43451;49.060;10.616;2023-02-04T05:27:08;98049.25;;;3.55;100.00
57628;BME280;43451;49.060;10.616;2023-02-04T05:29:34;98053.50;;;3.47;100.00
57628;BME280;43451;49.060;10.616;2023-02-04T05:31:59;98051.75;;;3.51;100.00
57628;BME280;43451;49.060;10.616;2023-02-04T05:34:24;98051.31;;;3.49;100.00
57628;BME280;43451;49.060;10.616;2023-02-04T05:36:50;98057.91;;;3.43;100.00
57628;BME280;43451;49.060;10.616;2023-02-04T05:39:15;98059.41;;;3.26;100.00
57628;BME280;43451;49.060;10.616;2023-02-04T05:41:41;98059.59;;;3.30;100.00
57628;BME280;43451;49.060;10.616;2023-02-04T05:44:06;98062.72;;;3.23;100.00
57628;BME280;43451;49.060;10.616;2023-02-04T05:46:32;98073.00;;;3.21;100.00
57628;BME280;43451;49.060;10.616;2023-02-04T05:48:57;98064.94;;;3.21;100.00
57628;BME280;43451;49.060;10.616;2023-02-04T05:51:23;98072.22;;;3.21;100.00
57628;BME280;43451;49.060;10.616;2023-02-04T05:53:48;98064.88;;;3.13;100.00
57628;BME280;43451;49.060;10.616;2023-02-04T05:56:14;98082.41;;;3.10;100.00
57628;BME280;43451;49.060;10.616;2023-02-04T05:58:39;98077.88;;;3.19;100.00
57628;BME280;43451;49.060;10.616;2023-02-04T06:01:04;98077.13;;;3.28;100.00
57628;BME280;43451;49.060;10.616;2023-02-04T06:03:30;98100.41;;;3.41;100.00
57628;BME280;43451;49.060;10.616;2023-02-04T06:05:56;98095.16;;;3.36;100.00
57628;BME280;43451;49.060;10.616;2023-02-04T06:08:22;98112.38;;;3.35;100.00
57628;BME280;43451;49.060;10.616;2023-02-04T06:10:48;98117.47;;;3.36;100.00
57628;BME280;43451;49.060;10.616;2023-02-04T06:13:14;98123.47;;;3.42;100.00
57628;BME280;43451;49.060;10.616;2023-02-04T06:15:39;98127.75;;;3.43;100.00
57628;BME280;43451;49.060;10.616;2023-02-04T06:18:06;98120.81;;;3.51;100.00
57628;BME280;43451;49.060;10.616;2023-02-04T06:20:31;98135.50;;;3.44;100.00
57628;BME280;43451;49.060;10.616;2023-02-04T06:22:57;98130.69;;;3.33;100.00
57628;BME280;43451;49.060;10.616;2023-02-04T06:25:22;98140.03;;;3.35;100.00
57628;BME280;43451;49.060;10.616;2023-02-04T06:27:48;98128.53;;;3.43;100.00
57628;BME280;43451;49.060;10.616;2023-02-04T06:30:15;98137.06;;;3.45;100.00
57628;BME280;43451;49.060;10.616;2023-02-04T06:32:40;98140.69;;;3.41;100.00
57628;BME280;43451;49.060;10.616;2023-02-04T06:35:07;98145.84;;;3.29;100.00
57628;BME280;43451;49.060;10.616;2023-02-04T06:37:32;98152.41;;;3.45;100.00
57628;BME280;43451;49.060;10.616;2023-02-04T06:39:58;98155.41;;;3.43;100.00
57628;BME280;43451;49.060;10.616;2023-02-04T06:42:23;98159.19;;;3.42;100.00
57628;BME280;43451;49.060;10.616;2023-02-04T06:44:51;98151.09;;;3.34;100.00
57628;BME280;43451;49.060;10.616;2023-02-04T06:47:17;98148.25;;;3.39;100.00
57628;BME280;43451;49.060;10.616;2023-02-04T06:49:43;98152.66;;;3.35;100.00
57628;BME280;43451;49.060;10.616;2023-02-04T06:52:09;98158.72;;;3.40;100.00
57628;BME280;43451;49.060;10.616;2023-02-04T06:54:35;98147.03;;;3.45;100.00
57628;BME280;43451;49.060;10.616;2023-02-04T06:57:01;98156.03;;;3.40;100.00
57628;BME280;43451;49.060;10.616;2023-02-04T06:59:36;98162.53;;;3.48;100.00
57628;BME280;43451;49.060;10.616;2023-02-04T07:02:04;98165.38;;;3.52;100.00
57628;BME280;43451;49.060;10.616;2023-02-04T07:04:29;98170.47;;;3.53;100.00
57628;BME280;43451;49.060;10.616;2023-02-04T07:06:55;98171.75;;;3.56;100.00
57628;BME280;43451;49.060;10.616;2023-02-04T07:09:20;98178.03;;;3.51;100.00
57628;BME280;43451;49.060;10.616;2023-02-04T07:11:46;98178.31;;;3.41;100.00
57628;BME280;43451;49.060;10.616;2023-02-04T07:14:12;98182.09;;;3.40;100.00
57628;BME280;43451;49.060;10.616;2023-02-04T07:16:37;98186.25;;;3.46;100.00
57628;BME280;43451;49.060;10.616;2023-02-04T07:19:02;98191.97;;;3.53;100.00
57628;BME280;43451;49.060;10.616;2023-02-04T07:21:28;98205.06;;;3.55;100.00
57628;BME280;43451;49.060;10.616;2023-02-04T07:23:54;98199.88;;;3.58;100.00
57628;BME280;43451;49.060;10.616;2023-02-04T07:26:19;98207.31;;;3.61;100.00
57628;BME280;43451;49.060;10.616;2023-02-04T07:28:45;98230.34;;;3.54;100.00
57628;BME280;43451;49.060;10.616;2023-02-04T07:31:11;98230.53;;;3.57;100.00
57628;BME280;43451;49.060;10.616;2023-02-04T07:33:37;98218.34;;;3.51;100.00
57628;BME280;43451;49.060;10.616;2023-02-04T07:36:03;98232.03;;;3.41;100.00
57628;BME280;43451;49.060;10.616;2023-02-04T07:38:28;98233.25;;;3.35;100.00
57628;BME280;43451;49.060;10.616;2023-02-04T07:40:54;98237.22;;;3.37;100.00
57628;BME280;43451;49.060;10.616;2023-02-04T07:43:19;98239.84;;;3.29;100.00
57628;BME280;43451;49.060;10.616;2023-02-04T07:45:45;98248.88;;;3.33;100.00
57628;BME280;43451;49.060;10.616;2023-02-04T07:48:10;98253.38;;;3.23;100.00
57628;BME280;43451;49.060;10.616;2023-02-04T07:50:36;98257.00;;;3.19;100.00
57628;BME280;43451;49.060;10.616;2023-02-04T07:53:02;98257.66;;;3.02;100.00
57628;BME280;43451;49.060;10.616;2023-02-04T07:55:28;98259.25;;;3.03;100.00
57628;BME280;43451;49.060;10.616;2023-02-04T07:57:53;98259.84;;;3.00;100.00
57628;BME280;43451;49.060;10.616;2023-02-04T08:00:19;98260.81;;;3.04;100.00
57628;BME280;43451;49.060;10.616;2023-02-04T08:02:45;98256.13;;;3.10;100.00
57628;BME280;43451;49.060;10.616;2023-02-04T08:05:10;98262.97;;;3.16;100.00
57628;BME280;43451;49.060;10.616;2023-02-04T08:07:36;98278.38;;;3.24;100.00
57628;BME280;43451;49.060;10.616;2023-02-04T08:10:03;98283.16;;;3.36;100.00
57628;BME280;43451;49.060;10.616;2023-02-04T08:12:28;98296.56;;;3.49;100.00
57628;BME280;43451;49.060;10.616;2023-02-04T08:14:54;98284.28;;;3.57;100.00
57628;BME280;43451;49.060;10.616;2023-02-04T08:17:20;98280.84;;;3.65;100.00
57628;BME280;43451;49.060;10.616;2023-02-04T08:19:46;98285.25;;;3.84;100.00
57628;BME280;43451;49.060;10.616;2023-02-04T08:22:11;98287.47;;;3.90;100.00
57628;BME280;43451;49.060;10.616;2023-02-04T08:24:37;98295.22;;;3.92;100.00
57628;BME280;43451;49.060;10.616;2023-02-04T08:27:02;98300.25;;;3.85;100.00
57628;BME280;43451;49.060;10.616;2023-02-04T08:29:27;98300.53;;;3.75;100.00
57628;BME280;43451;49.060;10.616;2023-02-04T08:31:53;98310.72;;;3.64;100.00
57628;BME280;43451;49.060;10.616;2023-02-04T08:34:18;98304.66;;;3.58;100.00
57628;BME280;43451;49.060;10.616;2023-02-04T08:36:44;98314.31;;;3.59;100.00
57628;BME280;43451;49.060;10.616;2023-02-04T08:39:10;98316.66;;;3.52;100.00
57628;BME280;43451;49.060;10.616;2023-02-04T08:41:37;98328.44;;;3.65;100.00
57628;BME280;43451;49.060;10.616;2023-02-04T08:44:02;98329.41;;;3.69;100.00
57628;BME280;43451;49.060;10.616;2023-02-04T08:46:28;98332.53;;;3.62;100.00
57628;BME280;43451;49.060;10.616;2023-02-04T08:48:53;98329.41;;;3.69;100.00
57628;BME280;43451;49.060;10.616;2023-02-04T08:51:19;98342.78;;;3.60;100.00
57628;BME280;43451;49.060;10.616;2023-02-04T08:53:44;98356.81;;;3.35;100.00
57628;BME280;43451;49.060;10.616;2023-02-04T08:56:09;98368.59;;;3.11;100.00
57628;BME280;43451;49.060;10.616;2023-02-04T08:58:39;98367.06;;;2.83;100.00
57628;BME280;43451;49.060;10.616;2023-02-04T09:01:05;98374.28;;;2.82;100.00
57628;BME280;43451;49.060;10.616;2023-02-04T09:03:31;98362.97;;;2.71;100.00
57628;BME280;43451;49.060;10.616;2023-02-04T09:05:56;98368.94;;;2.68;100.00
57628;BME280;43451;49.060;10.616;2023-02-04T09:08:22;98368.06;;;2.73;100.00
57628;BME280;43451;49.060;10.616;2023-02-04T09:10:47;98366.03;;;2.78;100.00
57628;BME280;43451;49.060;10.616;2023-02-04T09:13:13;98382.44;;;2.91;100.00
57628;BME280;43451;49.060;10.616;2023-02-04T09:15:38;98375.06;;;3.10;100.00
57628;BME280;43451;49.060;10.616;2023-02-04T09:18:04;98385.91;;;3.05;100.00
57628;BME280;43451;49.060;10.616;2023-02-04T09:20:38;98388.69;;;3.00;100.00
57628;BME280;43451;49.060;10.616;2023-02-04T09:23:04;98395.38;;;3.02;100.00
57628;BME280;43451;49.060;10.616;2023-02-04T09:25:33;98399.63;;;3.17;100.00
57628;BME280;43451;49.060;10.616;2023-02-04T09:27:59;98399.63;;;3.17;100.00
57628;BME280;43451;49.060;10.616;2023-02-04T09:30:24;98395.66;;;3.01;100.00
57628;BME280;43451;49.060;10.616;2023-02-04T09:32:50;98400.81;;;3.11;100.00
57628;BME280;43451;49.060;10.616;2023-02-04T09:35:16;98405.09;;;3.12;100.00
57628;BME280;43451;49.060;10.616;2023-02-04T09:37:41;98411.44;;;3.16;100.00
57628;BME280;43451;49.060;10.616;2023-02-04T09:40:08;98406.81;;;3.08;100.00
57628;BME280;43451;49.060;10.616;2023-02-04T09:42:34;98412.44;;;3.07;100.00
57628;BME280;43451;49.060;10.616;2023-02-04T09:45:00;98420.31;;;3.03;100.00
57628;BME280;43451;49.060;10.616;2023-02-04T09:47:27;98425.69;;;3.03;100.00
57628;BME280;43451;49.060;10.616;2023-02-04T09:49:53;98425.09;;;3.06;100.00
57628;BME280;43451;49.060;10.616;2023-02-04T09:52:19;98431.66;;;3.00;100.00
57628;BME280;43451;49.060;10.616;2023-02-04T09:54:45;98429.84;;;3.23;100.00
57628;BME280;43451;49.060;10.616;2023-02-04T09:57:16;98448.22;;;3.30;100.00
57628;BME280;43451;49.060;10.616;2023-02-04T09:59:42;98445.22;;;3.45;97.49
57628;BME280;43451;49.060;10.616;2023-02-04T10:02:23;98439.38;;;3.43;95.74
57628;BME280;43451;49.060;10.616;2023-02-04T10:04:52;98455.06;;;3.36;92.59
57628;BME280;43451;49.060;10.616;2023-02-04T10:07:21;98458.69;;;3.31;93.21
57628;BME280;43451;49.060;10.616;2023-02-04T10:09:50;98453.13;;;3.28;94.36
57628;BME280;43451;49.060;10.616;2023-02-04T10:12:16;98449.09;;;3.39;95.89
57628;BME280;43451;49.060;10.616;2023-02-04T10:14:42;98456.09;;;3.40;93.46
57628;BME280;43451;49.060;10.616;2023-02-04T10:17:09;98452.41;;;3.36;94.69
57628;BME280;43451;49.060;10.616;2023-02-04T10:19:35;98457.47;;;3.37;94.53
57628;BME280;43451;49.060;10.616;2023-02-04T10:22:02;98465.03;;;3.49;93.90
57628;BME280;43451;49.060;10.616;2023-02-04T10:24:28;98467.00;;;3.57;93.52
57628;BME280;43451;49.060;10.616;2023-02-04T10:27:06;98466.09;;;3.48;96.20
57628;BME280;43451;49.060;10.616;2023-02-04T10:29:32;98470.28;;;3.54;99.02
57628;BME280;43451;49.060;10.616;2023-02-04T10:31:57;98460.22;;;3.60;95.92
57628;BME280;43451;49.060;10.616;2023-02-04T10:34:34;98452.63;;;3.76;97.43
57628;BME280;43451;49.060;10.616;2023-02-04T10:37:17;98457.50;;;3.96;94.46
57628;BME280;43451;49.060;10.616;2023-02-04T10:39:43;98458.44;;;4.14;92.55
57628;BME280;43451;49.060;10.616;2023-02-04T10:42:19;98451.50;;;4.13;94.24
57628;BME280;43451;49.060;10.616;2023-02-04T10:44:46;98457.84;;;4.17;88.65
57628;BME280;43451;49.060;10.616;2023-02-04T10:50:02;98447.75;;;4.23;89.76
57628;BME280;43451;49.060;10.616;2023-02-04T10:52:35;98444.81;;;4.33;92.46
57628;BME280;43451;49.060;10.616;2023-02-04T10:55:04;98444.72;;;4.47;93.04
57628;BME280;43451;49.060;10.616;2023-02-04T10:57:31;98444.81;;;4.64;87.20
57628;BME280;43451;49.060;10.616;2023-02-04T11:00:01;98437.75;;;4.77;84.28
57628;BME280;43451;49.060;10.616;2023-02-04T11:05:22;98438.16;;;4.61;88.03
57628;BME280;43451;49.060;10.616;2023-02-04T11:07:49;98441.50;;;4.36;85.20
57628;BME280;43451;49.060;10.616;2023-02-04T11:10:23;98448.94;;;4.39;88.74
57628;BME280;43451;49.060;10.616;2023-02-04T11:20:45;98442.16;;;4.73;94.98
57628;BME280;43451;49.060;10.616;2023-02-04T11:26:10;98443.56;;;5.01;85.30
57628;BME280;43451;49.060;10.616;2023-02-04T11:31:38;98445.00;;;5.16;82.99
57628;BME280;43451;49.060;10.616;2023-02-04T11:39:27;98447.75;;;5.42;79.57
57628;BME280;43451;49.060;10.616;2023-02-04T11:41:58;98450.31;;;5.56;80.78
57628;BME280;43451;49.060;10.616;2023-02-04T11:44:24;98450.50;;;5.59;76.97
57628;BME280;43451;49.060;10.616;2023-02-04T11:46:53;98444.44;;;5.54;76.10
57628;BME280;43451;49.060;10.616;2023-02-04T11:49:24;98436.38;;;5.63;77.79
57628;BME280;43451;49.060;10.616;2023-02-04T11:51:50;98439.69;;;5.51;76.87
57628;BME280;43451;49.060;10.616;2023-02-04T11:54:26;98434.91;;;5.39;77.66
57628;BME280;43451;49.060;10.616;2023-02-04T11:56:52;98440.47;;;5.34;80.41
57628;BME280;43451;49.060;10.616;2023-02-04T11:59:17;98433.03;;;4.91;77.79
57628;BME280;43451;49.060;10.616;2023-02-04T12:01:45;98438.94;;;5.02;81.50
57628;BME280;43451;49.060;10.616;2023-02-04T12:04:22;98430.91;;;5.19;81.41
57628;BME280;43451;49.060;10.616;2023-02-04T12:07:02;98431.53;;;5.07;81.57
57628;BME280;43451;49.060;10.616;2023-02-04T12:09:29;98433.41;;;5.07;83.84
57628;BME280;43451;49.060;10.616;2023-02-04T12:12:00;98438.00;;;5.06;82.22
57628;BME280;43451;49.060;10.616;2023-02-04T12:14:35;98441.84;;;5.14;82.16
57628;BME280;43451;49.060;10.616;2023-02-04T12:17:18;98434.22;;;5.16;77.51
57628;BME280;43451;49.060;10.616;2023-02-04T12:19:44;98449.56;;;4.98;78.21
57628;BME280;43451;49.060;10.616;2023-02-04T12:22:10;98451.56;;;4.84;78.03
57628;BME280;43451;49.060;10.616;2023-02-04T12:24:37;98446.94;;;4.76;77.75
57628;BME280;43451;49.060;10.616;2023-02-04T12:27:03;98456.44;;;4.82;79.30
57628;BME280;43451;49.060;10.616;2023-02-04T12:29:28;98456.59;;;4.77;78.91
57628;BME280;43451;49.060;10.616;2023-02-04T12:31:53;98460.06;;;4.77;78.02
57628;BME280;43451;49.060;10.616;2023-02-04T12:34:19;98452.28;;;4.67;77.69
57628;BME280;43451;49.060;10.616;2023-02-04T12:36:45;98454.47;;;4.65;78.41
57628;BME280;43451;49.060;10.616;2023-02-04T12:39:10;98463.50;;;4.60;78.76
57628;BME280;43451;49.060;10.616;2023-02-04T12:41:36;98468.63;;;4.48;76.55
57628;BME280;43451;49.060;10.616;2023-02-04T12:44:01;98468.88;;;4.60;79.71
57628;BME280;43451;49.060;10.616;2023-02-04T12:46:28;98467.88;;;4.56;77.50
57628;BME280;43451;49.060;10.616;2023-02-04T12:48:53;98475.59;;;4.49;78.60
57628;BME280;43451;49.060;10.616;2023-02-04T12:51:19;98475.09;;;4.47;80.36
57628;BME280;43451;49.060;10.616;2023-02-04T12:53:46;98468.81;;;4.52;80.38
57628;BME280;43451;49.060;10.616;2023-02-04T12:56:13;98475.25;;;4.42;78.31
57628;BME280;43451;49.060;10.616;2023-02-04T12:58:38;98476.81;;;4.43;80.37
57628;BME280;43451;49.060;10.616;2023-02-04T13:01:04;98476.81;;;4.43;81.02
57628;BME280;43451;49.060;10.616;2023-02-04T13:03:30;98482.09;;;4.48;79.92
57628;BME280;43451;49.060;10.616;2023-02-04T13:05:56;98472.81;;;4.32;78.79
57628;BME280;43451;49.060;10.616;2023-02-04T13:08:21;98473.88;;;4.22;79.59
57628;BME280;43451;49.060;10.616;2023-02-04T13:10:47;98476.22;;;4.46;80.12
57628;BME280;43451;49.060;10.616;2023-02-04T13:13:17;98483.63;;;4.72;78.90